Time;durP1;ratioP1;P1;durP2;ratioP2;P2;SDS_P1;SDS_P2;PMS_P1;PMS_P2;Temp;Humidity;BMP_temperature;BMP_pressure;BME280_temperature;BME280_humidity;BME280_pressure;Samples;Min_cycle;Max_cycle;Signal;HPM_P1;HPM_P2
2022/07/07 00:01:45;;;;;;;27.63;15.30;;;;;;;;;;5134687;27;20058;-72
2022/07/07 00:04:11;;;;;;;27.95;14.52;;;;;;;;;;5142828;27;20498;-72
2022/07/07 00:06:37;;;;;;;;;;;;;;;;;;5134145;27;20047;-70
2022/07/07 00:09:04;;;;;;;26.13;13.82;;;;;;;;;;5129642;27;20001;-72
2022/07/07 00:11:30;;;;;;;21.65;11.20;;;;;;;;;;5118915;27;20045;-70
2022/07/07 00:13:56;;;;;;;;;;;;;;;;;;5140686;27;20045;-71
2022/07/07 00:16:22;;;;;;;23.25;13.38;;;;;;;;;;5122355;27;19996;-71
2022/07/07 00:18:49;;;;;;;23.77;12.80;;;;;;;;;;5134806;27;20084;-71
2022/07/07 00:21:15;;;;;;;22.70;11.15;;;;;;;;;;5149053;27;20046;-72
2022/07/07 00:23:41;;;;;;;20.02;10.80;;;;;;;;;;5134377;27;20046;-70
2022/07/07 00:26:08;;;;;;;22.70;10.27;;;;;;;;;;5147815;27;20120;-76
2022/07/07 00:28:34;;;;;;;;;;;;;;;;;;5139445;27;20043;-72
2022/07/07 00:31:00;;;;;;;23.23;10.73;;;;;;;;;;5130631;27;20274;-71
2022/07/07 00:33:26;;;;;;;;;;;;;;;;;;5133741;27;20058;-70
2022/07/07 00:35:52;;;;;;;22.33;10.90;;;;;;;;;;5148181;27;19923;-72
2022/07/07 00:38:18;;;;;;;;;;;;;;;;;;5131245;27;20504;-71
2022/07/07 00:40:49;;;;;;;21.83;11.13;;;;;;;;;;5146692;27;20014;-70
2022/07/07 00:43:15;;;;;;;21.05;11.88;;;;;;;;;;5145198;27;20497;-76
2022/07/07 00:45:41;;;;;;;19.77;8.73;;;;;;;;;;5140200;27;20591;-78
2022/07/07 00:48:08;;;;;;;17.27;9.00;;;;;;;;;;5136020;27;20174;-73
2022/07/07 00:50:34;;;;;;;15.90;6.57;;;;;;;;;;5136781;27;20367;-73
2022/07/07 00:53:00;;;;;;;16.60;6.82;;;;;;;;;;5129530;27;20376;-70
2022/07/07 00:55:26;;;;;;;15.30;6.47;;;;;;;;;;5135932;27;20213;-71
2022/07/07 00:57:52;;;;;;;17.05;6.80;;;;;;;;;;5131925;27;20050;-71
2022/07/07 01:00:18;;;;;;;16.63;7.32;;;;;;;;;;5137754;27;20348;-71
2022/07/07 01:02:44;;;;;;;17.42;7.82;;;;;;;;;;5127527;27;20366;-71
2022/07/07 01:05:10;;;;;;;;;;;;;;;;;;5129114;27;20055;-71
2022/07/07 01:07:37;;;;;;;18.60;7.68;;;;;;;;;;5127725;27;19931;-71
2022/07/07 01:10:04;;;;;;;23.15;8.13;;;;;;;;;;5131277;27;20465;-70
2022/07/07 01:12:34;;;;;;;14.02;7.30;;;;;;;;;;5129047;27;20058;-70
2022/07/07 01:15:00;;;;;;;19.90;7.53;;;;;;;;;;5113166;27;20058;-70
2022/07/07 01:17:26;;;;;;;18.15;8.70;;;;;;;;;;5128393;27;20047;-70
2022/07/07 01:19:52;;;;;;;17.83;8.20;;;;;;;;;;5127224;27;20043;-71
2022/07/07 01:22:21;;;;;;;15.98;7.60;;;;;;;;;;5150147;27;20070;-71
2022/07/07 01:24:47;;;;;;;17.35;8.75;;;;;;;;;;5137278;27;20126;-72
2022/07/07 01:27:14;;;;;;;18.52;7.93;;;;;;;;;;5145135;27;20150;-71
2022/07/07 01:29:41;;;;;;;18.00;8.65;;;;;;;;;;5128230;27;20080;-73
2022/07/07 01:32:08;;;;;;;17.95;7.53;;;;;;;;;;5138707;27;20072;-70
2022/07/07 01:34:38;;;;;;;16.92;8.43;;;;;;;;;;5127860;27;20080;-70
2022/07/07 01:37:07;;;;;;;17.35;8.55;;;;;;;;;;5136825;27;20127;-71
2022/07/07 01:39:33;;;;;;;21.10;9.20;;;;;;;;;;5128106;27;20136;-71
2022/07/07 01:42:00;;;;;;;21.83;9.55;;;;;;;;;;5128428;27;20134;-71
2022/07/07 01:44:26;;;;;;;17.17;8.35;;;;;;;;;;5128081;27;20114;-71
2022/07/07 01:46:52;;;;;;;;;;;;;;;;;;5138500;27;20050;-70
2022/07/07 01:49:18;;;;;;;16.23;8.50;;;;;;;;;;5131066;27;19919;-70
2022/07/07 01:51:44;;;;;;;22.02;9.20;;;;;;;;;;5134264;27;20046;-69
2022/07/07 01:54:10;;;;;;;21.13;9.38;;;;;;;;;;5140411;27;20154;-70
2022/07/07 01:56:37;;;;;;;20.10;9.45;;;;;;;;;;5129940;27;20095;-70
2022/07/07 01:59:04;;;;;;;22.30;9.40;;;;;;;;;;5127710;27;20055;-70
2022/07/07 02:01:30;;;;;;;22.23;9.63;;;;;;;;;;5108276;27;20039;-68
2022/07/07 02:03:56;;;;;;;24.40;9.75;;;;;;;;;;5144578;27;20130;-69
2022/07/07 02:06:22;;;;;;;28.40;9.30;;;;;;;;;;5145398;27;20046;-70
2022/07/07 02:08:48;;;;;;;22.98;9.18;;;;;;;;;;5118565;27;20110;-73
2022/07/07 02:11:14;;;;;;;30.48;10.18;;;;;;;;;;5128822;28;20107;-72
2022/07/07 02:13:47;;;;;;;24.48;10.88;;;;;;;;;;5127661;27;20039;-73
2022/07/07 02:16:14;;;;;;;20.83;8.32;;;;;;;;;;5141517;27;20137;-72
2022/07/07 02:18:41;;;;;;;23.13;9.02;;;;;;;;;;5133342;27;20123;-70
2022/07/07 02:21:07;;;;;;;33.95;9.57;;;;;;;;;;5128990;27;20114;-74
2022/07/07 02:23:34;;;;;;;28.92;9.95;;;;;;;;;;5126444;27;20106;-71
2022/07/07 02:26:00;;;;;;;25.67;9.10;;;;;;;;;;5134494;27;20193;-72
2022/07/07 02:28:27;;;;;;;23.92;8.85;;;;;;;;;;5138239;27;20039;-71
2022/07/07 02:30:54;;;;;;;26.23;8.50;;;;;;;;;;5136159;27;20121;-71
2022/07/07 02:33:21;;;;;;;25.63;8.25;;;;;;;;;;5129628;27;20047;-71
2022/07/07 02:35:47;;;;;;;17.92;6.18;;;;;;;;;;5133285;27;20066;-71
2022/07/07 02:38:13;;;;;;;19.88;6.45;;;;;;;;;;5140676;27;20454;-71
2022/07/07 02:40:41;;;;;;;21.45;6.30;;;;;;;;;;5127556;27;20118;-72
2022/07/07 02:43:08;;;;;;;22.38;6.57;;;;;;;;;;5131526;27;20046;-72
2022/07/07 02:45:34;;;;;;;25.05;7.15;;;;;;;;;;5108723;27;20047;-71
2022/07/07 02:48:00;;;;;;;21.00;6.30;;;;;;;;;;5128853;27;20055;-72
2022/07/07 02:50:26;;;;;;;22.90;6.90;;;;;;;;;;5133534;27;20065;-71
2022/07/07 02:52:52;;;;;;;18.88;6.15;;;;;;;;;;5125635;27;20088;-70
2022/07/07 02:55:18;;;;;;;17.73;6.13;;;;;;;;;;5125597;27;20051;-71
2022/07/07 02:57:44;;;;;;;20.38;5.70;;;;;;;;;;5129617;27;20058;-72
2022/07/07 03:00:10;;;;;;;23.40;6.43;;;;;;;;;;5119820;27;20047;-72
2022/07/07 03:02:36;;;;;;;20.55;6.55;;;;;;;;;;5113296;27;20050;-75
2022/07/07 03:05:03;;;;;;;21.58;6.45;;;;;;;;;;5118998;27;20059;-77
2022/07/07 03:07:29;;;;;;;24.15;6.93;;;;;;;;;;5112089;27;20483;-73
2022/07/07 03:09:55;;;;;;;25.33;7.07;;;;;;;;;;5118392;27;20754;-76
2022/07/07 03:12:21;;;;;;;24.25;7.65;;;;;;;;;;5113865;27;20526;-80
2022/07/07 03:14:47;;;;;;;17.65;6.20;;;;;;;;;;5128332;27;20542;-80
2022/07/07 03:17:13;;;;;;;22.90;6.85;;;;;;;;;;5132151;27;20130;-76
2022/07/07 03:19:39;;;;;;;29.52;6.90;;;;;;;;;;5128734;27;20039;-74
2022/07/07 03:22:05;;;;;;;26.17;7.03;;;;;;;;;;5118927;27;20043;-76
2022/07/07 03:24:31;;;;;;;23.58;6.57;;;;;;;;;;5123623;27;20439;-79
2022/07/07 03:27:00;;;;;;;16.23;3.60;;;;;;;;;;5129370;27;20096;-73
2022/07/07 03:29:26;;;;;;;16.15;4.00;;;;;;;;;;5126202;27;20071;-79
2022/07/07 03:31:52;;;;;;;;;;;;;;;;;;5111611;27;20071;-70
2022/07/07 03:34:18;;;;;;;19.60;3.85;;;;;;;;;;5110764;27;20030;-69
2022/07/07 03:36:44;;;;;;;18.70;3.88;;;;;;;;;;5109232;27;20161;-68
2022/07/07 03:39:11;;;;;;;16.50;3.47;;;;;;;;;;5111129;28;20126;-71
2022/07/07 03:41:37;;;;;;;20.05;3.50;;;;;;;;;;5121832;27;20253;-71
2022/07/07 03:44:04;;;;;;;15.50;3.10;;;;;;;;;;5126672;27;20103;-71
2022/07/07 03:46:30;;;;;;;;;;;;;;;;;;5120629;27;20043;-77
2022/07/07 03:48:56;;;;;;;16.35;3.50;;;;;;;;;;5124689;27;19919;-77
2022/07/07 03:51:22;;;;;;;14.23;2.75;;;;;;;;;;5109337;27;20075;-81
2022/07/07 03:53:48;;;;;;;18.02;2.90;;;;;;;;;;5123956;27;20062;-68
2022/07/07 03:56:14;;;;;;;14.55;2.80;;;;;;;;;;5129627;27;20058;-73
2022/07/07 03:58:40;;;;;;;14.85;2.80;;;;;;;;;;5130808;27;20110;-72
2022/07/07 04:01:07;;;;;;;12.95;2.40;;;;;;;;;;5140396;27;20043;-73
2022/07/07 04:03:33;;;;;;;;;;;;;;;;;;5131604;27;20039;-71
2022/07/07 04:05:59;;;;;;;16.58;3.13;;;;;;;;;;5136685;27;19919;-69
2022/07/07 04:08:25;;;;;;;21.27;3.30;;;;;;;;;;5136324;27;20080;-73
2022/07/07 04:10:51;;;;;;;21.85;3.58;;;;;;;;;;5129861;27;20047;-72
2022/07/07 04:13:18;;;;;;;21.17;3.90;;;;;;;;;;5134914;27;20340;-73
2022/07/07 04:15:44;;;;;;;;;;;;;;;;;;5111484;27;20050;-77
2022/07/07 04:18:11;;;;;;;18.55;4.18;;;;;;;;;;5138523;27;19927;-72
2022/07/07 04:20:37;;;;;;;29.33;4.43;;;;;;;;;;5134110;27;20057;-70
2022/07/07 04:23:03;;;;;;;19.50;3.40;;;;;;;;;;5134610;27;20532;-70
2022/07/07 04:25:29;;;;;;;16.50;3.97;;;;;;;;;;5151721;27;20058;-77
2022/07/07 04:27:55;;;;;;;20.80;4.88;;;;;;;;;;5118566;27;20039;-75
2022/07/07 04:30:21;;;;;;;21.52;4.30;;;;;;;;;;5134211;27;20589;-72
2022/07/07 04:32:47;;;;;;;28.67;4.90;;;;;;;;;;5109313;27;20043;-72
2022/07/07 04:35:14;;;;;;;18.08;4.35;;;;;;;;;;5114052;27;20175;-76
2022/07/07 04:37:40;;;;;;;20.58;4.30;;;;;;;;;;5148704;27;20038;-72
2022/07/07 04:40:06;;;;;;;18.48;4.05;;;;;;;;;;5144573;27;20054;-72
2022/07/07 04:42:32;;;;;;;16.88;3.40;;;;;;;;;;5132660;27;20475;-79
2022/07/07 04:44:59;;;;;;;16.20;3.25;;;;;;;;;;5144997;27;20046;-74
2022/07/07 04:47:25;;;;;;;17.35;3.47;;;;;;;;;;5140355;27;20051;-73
2022/07/07 04:49:51;;;;;;;18.63;3.03;;;;;;;;;;5131813;27;20057;-72
2022/07/07 04:52:17;;;;;;;19.17;3.60;;;;;;;;;;5142074;27;20129;-79
2022/07/07 04:54:43;;;;;;;;;;;;;;;;;;5130714;27;20104;-77
2022/07/07 04:57:10;;;;;;;19.63;3.50;;;;;;;;;;5110703;27;19995;-76
2022/07/07 04:59:36;;;;;;;19.25;3.97;;;;;;;;;;5138936;27;20078;-73
2022/07/07 05:02:02;;;;;;;;;;;;;;;;;;5134735;27;20050;-76
2022/07/07 05:04:28;;;;;;;18.73;3.75;;;;;;;;;;5136994;27;19919;-74
2022/07/07 05:06:54;;;;;;;21.10;4.50;;;;;;;;;;5140253;27;20042;-74
2022/07/07 05:09:20;;;;;;;20.77;3.35;;;;;;;;;;5146789;27;20051;-77
2022/07/07 05:11:46;;;;;;;19.50;4.30;;;;;;;;;;5137918;27;20035;-76
2022/07/07 05:14:12;;;;;;;17.92;4.90;;;;;;;;;;5144026;27;20078;-80
2022/07/07 05:16:38;;;;;;;20.08;4.47;;;;;;;;;;5118006;27;20043;-76
2022/07/07 05:19:04;;;;;;;23.30;5.30;;;;;;;;;;5126069;27;20038;-75
2022/07/07 05:21:30;;;;;;;21.58;4.57;;;;;;;;;;5113658;27;20045;-73
2022/07/07 05:23:57;;;;;;;21.70;4.72;;;;;;;;;;5135077;27;20057;-72
2022/07/07 05:26:23;;;;;;;22.10;5.05;;;;;;;;;;5135638;27;20045;-76
2022/07/07 05:28:49;;;;;;;18.58;5.07;;;;;;;;;;5097811;27;20043;-78
2022/07/07 05:31:15;;;;;;;26.98;5.22;;;;;;;;;;5110705;27;20054;-80
2022/07/07 05:33:42;;;;;;;23.73;4.30;;;;;;;;;;5116843;27;20129;-76
2022/07/07 05:36:08;;;;;;;21.65;4.88;;;;;;;;;;5135928;27;20043;-75
2022/07/07 05:38:36;;;;;;;22.75;4.63;;;;;;;;;;5131477;27;20054;-76
2022/07/07 05:41:02;;;;;;;23.27;5.22;;;;;;;;;;5137175;27;20515;-74
2022/07/07 05:43:28;;;;;;;23.02;5.07;;;;;;;;;;5142991;27;20034;-83
2022/07/07 05:45:54;;;;;;;;;;;;;;;;;;5116962;27;20122;-78
2022/07/07 05:48:20;;;;;;;24.73;4.97;;;;;;;;;;5140001;27;19927;-78
2022/07/07 05:50:46;;;;;;;20.42;4.43;;;;;;;;;;5136265;27;20118;-81
2022/07/07 05:53:12;;;;;;;26.48;4.90;;;;;;;;;;5137658;27;20183;-80
2022/07/07 05:55:39;;;;;;;19.40;5.30;;;;;;;;;;5145610;27;20358;-82
2022/07/07 05:58:05;;;;;;;15.63;3.95;;;;;;;;;;5134681;27;20059;-72
2022/07/07 06:00:32;;;;;;;21.05;3.83;;;;;;;;;;5133529;27;20051;-72
2022/07/07 06:02:58;;;;;;;23.98;4.25;;;;;;;;;;5129639;27;20447;-69
2022/07/07 06:05:24;;;;;;;22.85;4.40;;;;;;;;;;5137306;27;20108;-72
2022/07/07 06:07:50;;;;;;;21.45;4.28;;;;;;;;;;5145450;27;20042;-72
2022/07/07 06:10:16;;;;;;;23.15;4.07;;;;;;;;;;5146653;27;20070;-71
2022/07/07 06:12:42;;;;;;;16.55;3.60;;;;;;;;;;5145843;27;20378;-70
2022/07/07 06:15:09;;;;;;;14.07;3.45;;;;;;;;;;5130025;27;20040;-68
2022/07/07 06:17:35;;;;;;;14.75;3.20;;;;;;;;;;5136032;27;20050;-69
2022/07/07 06:20:02;;;;;;;13.52;2.72;;;;;;;;;;5139103;27;20476;-70
2022/07/07 06:22:29;;;;;;;15.45;2.90;;;;;;;;;;5143550;27;20085;-69
2022/07/07 06:24:56;;;;;;;11.82;2.78;;;;;;;;;;5129197;28;20055;-71
2022/07/07 06:27:22;;;;;;;12.68;2.70;;;;;;;;;;5109621;28;20051;-70
2022/07/07 06:29:48;;;;;;;12.57;3.10;;;;;;;;;;5128858;27;20118;-70
2022/07/07 06:32:15;;;;;;;15.90;3.15;;;;;;;;;;5132873;27;20518;-71
2022/07/07 06:34:42;;;;;;;16.70;3.03;;;;;;;;;;5132745;27;20153;-69
2022/07/07 06:37:08;;;;;;;15.75;3.15;;;;;;;;;;5114338;27;20170;-79
2022/07/07 06:39:34;;;;;;;9.45;2.75;;;;;;;;;;5136547;27;20050;-69
2022/07/07 06:42:00;;;;;;;13.98;2.90;;;;;;;;;;5146168;27;20074;-68
2022/07/07 06:44:30;;;;;;;14.45;2.70;;;;;;;;;;5147554;27;20453;-70
2022/07/07 06:47:00;;;;;;;13.63;2.90;;;;;;;;;;5149321;27;20066;-69
2022/07/07 06:49:27;;;;;;;12.60;2.10;;;;;;;;;;5131144;27;20030;-71
2022/07/07 06:51:53;;;;;;;11.77;2.40;;;;;;;;;;5147293;27;20045;-72
2022/07/07 06:54:19;;;;;;;7.82;2.13;;;;;;;;;;5137816;27;20062;-77
2022/07/07 06:56:45;;;;;;;11.30;2.05;;;;;;;;;;5129153;27;20062;-72
2022/07/07 06:59:11;;;;;;;;;;;;;;;;;;5146573;27;20049;-72
2022/07/07 07:01:38;;;;;;;8.15;2.05;;;;;;;;;;5146044;27;20323;-74
2022/07/07 07:04:05;;;;;;;11.43;2.05;;;;;;;;;;5145048;27;20129;-75
2022/07/07 07:06:31;;;;;;;12.80;2.40;;;;;;;;;;5102189;27;20085;-81
2022/07/07 07:08:58;;;;;;;;;;;;;;;;;;5148744;27;20093;-79
2022/07/07 07:11:24;;;;;;;;;;;;;;;;;;5145619;27;19942;-75
2022/07/07 07:13:50;;;;;;;8.82;2.17;;;;;;;;;;5139800;27;20315;-77
2022/07/07 07:16:17;;;;;;;7.22;1.80;;;;;;;;;;5150345;27;20453;-82
2022/07/07 07:18:43;;;;;;;6.22;1.48;;;;;;;;;;5149184;27;20047;-80
2022/07/07 07:21:09;;;;;;;8.00;1.50;;;;;;;;;;5132145;27;20124;-84
2022/07/07 07:23:37;;;;;;;9.00;1.92;;;;;;;;;;5132238;27;20050;-73
2022/07/07 07:26:04;;;;;;;12.25;1.80;;;;;;;;;;5145885;27;20078;-77
2022/07/07 07:28:30;;;;;;;11.73;2.10;;;;;;;;;;5133644;27;20047;-77
2022/07/07 07:30:56;;;;;;;9.85;1.85;;;;;;;;;;5133091;27;20071;-73
2022/07/07 07:33:22;;;;;;;;;;;;;;;;;;5131651;27;20094;-75
2022/07/07 07:35:48;;;;;;;8.55;1.92;;;;;;;;;;5134727;27;20288;-79
2022/07/07 07:38:14;;;;;;;13.45;2.28;;;;;;;;;;5112689;27;20046;-76
2022/07/07 07:40:40;;;;;;;10.15;2.00;;;;;;;;;;5128321;27;20496;-76
2022/07/07 07:43:06;;;;;;;11.20;2.30;;;;;;;;;;5151797;27;20055;-72
2022/07/07 07:45:32;;;;;;;12.25;2.17;;;;;;;;;;5148158;27;20075;-71
2022/07/07 07:48:01;;;;;;;;;;;;;;;;;;5140131;27;20114;-71
2022/07/07 07:50:28;;;;;;;12.98;2.35;;;;;;;;;;5148056;27;20404;-71
2022/07/07 07:52:53;;;;;;;;;;;;;;;;;;5151958;27;20055;-75
2022/07/07 07:55:21;;;;;;;13.27;3.05;;;;;;;;;;5142543;27;19919;-76
2022/07/07 07:57:47;;;;;;;12.38;3.03;;;;;;;;;;5114723;27;20046;-74
2022/07/07 08:00:15;;;;;;;12.13;2.58;;;;;;;;;;5143139;27;20122;-70
2022/07/07 08:02:41;;;;;;;13.40;2.90;;;;;;;;;;5130052;27;20159;-73
2022/07/07 08:05:07;;;;;;;13.45;2.67;;;;;;;;;;5132096;27;20047;-76
2022/07/07 08:07:34;;;;;;;11.57;2.22;;;;;;;;;;5142618;27;20054;-68
2022/07/07 08:10:10;;;;;;;;;;;;;;;;;;5130587;27;20382;-71
2022/07/07 08:12:36;;;;;;;14.85;2.67;;;;;;;;;;5128345;27;20009;-73
2022/07/07 08:15:02;;;;;;;;;;;;;;;;;;5111261;27;20459;-74
2022/07/07 08:17:28;;;;;;;10.77;2.67;;;;;;;;;;5129207;27;19919;-77
2022/07/07 08:19:54;;;;;;;14.20;3.28;;;;;;;;;;5129927;27;20043;-76
2022/07/07 08:22:21;;;;;;;16.95;2.90;;;;;;;;;;5133203;27;20046;-77
2022/07/07 08:24:47;;;;;;;12.05;3.08;;;;;;;;;;5134648;27;20058;-77
2022/07/07 08:27:13;;;;;;;;;;;;;;;;;;5131165;27;20049;-75
2022/07/07 08:29:39;;;;;;;15.30;3.35;;;;;;;;;;5147141;27;19919;-74
2022/07/07 08:32:13;;;;;;;18.42;3.60;;;;;;;;;;5151976;27;20406;-73
2022/07/07 08:34:40;;;;;;;15.95;3.40;;;;;;;;;;5133326;27;20147;-78
2022/07/07 08:37:06;;;;;;;23.38;4.35;;;;;;;;;;5130838;27;20134;-71
2022/07/07 08:39:33;;;;;;;17.35;3.88;;;;;;;;;;5129692;27;20510;-73
2022/07/07 08:41:59;;;;;;;20.95;4.53;;;;;;;;;;5130513;27;20143;-73
2022/07/07 08:44:26;;;;;;;18.92;3.20;;;;;;;;;;5138340;27;20035;-73
2022/07/07 08:46:52;;;;;;;20.23;3.80;;;;;;;;;;5144121;27;20046;-73
2022/07/07 08:49:18;;;;;;;13.98;3.63;;;;;;;;;;5124601;27;20086;-75
2022/07/07 08:51:44;;;;;;;;;;;;;;;;;;5149319;27;20245;-78
2022/07/07 08:54:11;;;;;;;14.98;3.55;;;;;;;;;;5137479;27;20311;-74
2022/07/07 08:56:40;;;;;;;14.63;3.22;;;;;;;;;;5131009;27;20103;-72
2022/07/07 08:59:13;;;;;;;14.32;2.90;;;;;;;;;;5145894;27;20098;-72
2022/07/07 09:01:39;;;;;;;15.90;2.58;;;;;;;;;;5140893;27;20062;-74
2022/07/07 09:04:05;;;;;;;13.52;2.88;;;;;;;;;;5136078;27;20071;-66
2022/07/07 09:06:31;;;;;;;;;;;;;;;;;;5134388;27;20043;-68
2022/07/07 09:08:58;;;;;;;11.02;2.70;;;;;;;;;;5129952;27;19939;-67
2022/07/07 09:11:25;;;;;;;16.67;3.33;;;;;;;;;;5131576;27;20118;-67
2022/07/07 09:13:51;;;;;;;9.93;2.83;;;;;;;;;;5150579;27;20123;-68
2022/07/07 09:16:18;;;;;;;;;;;;;;;;;;5151036;27;20154;-68
2022/07/07 09:18:45;;;;;;;15.80;3.33;;;;;;;;;;5114163;27;19918;-68
2022/07/07 09:21:29;;;;;;;14.77;3.30;;;;;;;;;;5149532;27;20053;-72
2022/07/07 09:23:56;;;;;;;14.57;3.00;;;;;;;;;;5145219;27;20047;-74
2022/07/07 09:26:36;;;;;;;13.23;2.58;;;;;;;;;;5141299;27;20457;-71
2022/07/07 09:29:02;;;;;;;12.60;2.72;;;;;;;;;;5133835;27;20047;-77
2022/07/07 09:31:47;;;;;;;13.98;3.13;;;;;;;;;;5134733;27;20450;-69
2022/07/07 09:34:14;;;;;;;16.10;3.58;;;;;;;;;;5111066;27;20081;-73
2022/07/07 09:39:46;;;;;;;12.35;3.47;;;;;;;;;;5116555;27;20466;-70
2022/07/07 09:42:25;;;;;;;12.15;2.97;;;;;;;;;;5130270;27;20482;-69
2022/07/07 09:44:56;;;;;;;13.75;2.65;;;;;;;;;;5129722;27;20138;-71
2022/07/07 09:47:23;;;;;;;18.45;3.17;;;;;;;;;;5129714;27;20054;-71
2022/07/07 09:50:13;;;;;;;17.10;2.40;;;;;;;;;;5129309;27;20098;-71
2022/07/07 09:52:41;;;;;;;10.90;2.20;;;;;;;;;;5118473;27;20043;-78
2022/07/07 09:55:08;;;;;;;11.95;1.73;;;;;;;;;;5128972;27;20096;-73
2022/07/07 09:57:35;;;;;;;8.95;2.00;;;;;;;;;;5128870;27;20374;-72
2022/07/07 10:00:01;;;;;;;;;;;;;;;;;;5129244;27;20039;-71
2022/07/07 10:02:29;;;;;;;11.32;2.50;;;;;;;;;;5131849;27;19919;-75
2022/07/07 10:04:56;;;;;;;8.20;1.98;;;;;;;;;;5135325;27;20066;-69
2022/07/07 10:07:23;;;;;;;12.45;2.80;;;;;;;;;;5131241;27;20039;-71
2022/07/07 10:09:52;;;;;;;6.18;1.75;;;;;;;;;;5134341;27;20035;-75
2022/07/07 10:12:21;;;;;;;13.68;2.42;;;;;;;;;;5139200;27;20054;-78
2022/07/07 10:14:48;;;;;;;14.95;2.55;;;;;;;;;;5137346;27;20048;-75
2022/07/07 10:17:16;;;;;;;14.48;3.03;;;;;;;;;;5141278;27;20117;-69
2022/07/07 10:19:43;;;;;;;8.50;2.05;;;;;;;;;;5149482;27;20114;-81
2022/07/07 10:22:11;;;;;;;14.35;2.88;;;;;;;;;;5143174;27;20049;-67
2022/07/07 10:24:38;;;;;;;12.98;3.35;;;;;;;;;;5145834;27;20479;-72
2022/07/07 10:27:05;;;;;;;18.38;3.45;;;;;;;;;;5129829;27;20126;-72
2022/07/07 10:29:38;;;;;;;14.32;2.75;;;;;;;;;;5144824;27;20097;-67
2022/07/07 10:32:05;;;;;;;13.57;2.58;;;;;;;;;;5129744;27;20527;-70
2022/07/07 10:34:33;;;;;;;13.75;2.63;;;;;;;;;;5140641;27;20101;-73
2022/07/07 10:37:02;;;;;;;15.95;3.00;;;;;;;;;;5134919;27;20122;-70
2022/07/07 10:39:56;;;;;;;20.67;3.58;;;;;;;;;;5128576;28;20043;-70
2022/07/07 10:42:25;;;;;;;18.17;3.15;;;;;;;;;;5125812;28;20168;-71
2022/07/07 10:44:53;;;;;;;19.88;3.60;;;;;;;;;;5128208;28;20055;-68
2022/07/07 10:47:19;;;;;;;23.48;3.53;;;;;;;;;;5128397;27;20046;-68
2022/07/07 10:49:47;;;;;;;19.67;3.40;;;;;;;;;;5092623;28;20131;-67
2022/07/07 10:52:17;;;;;;;20.98;4.38;;;;;;;;;;5128441;28;20467;-67
2022/07/07 10:54:45;;;;;;;20.15;4.60;;;;;;;;;;5127261;28;20047;-68
2022/07/07 10:57:18;;;;;;;22.30;4.15;;;;;;;;;;5128536;27;20133;-71
2022/07/07 11:00:01;;;;;;;11.85;2.55;;;;;;;;;;5127678;27;20062;-85
2022/07/07 11:02:30;;;;;;;12.80;2.60;;;;;;;;;;5128370;28;20043;-71
2022/07/07 11:04:57;;;;;;;22.45;3.50;;;;;;;;;;5127046;28;20055;-79
2022/07/07 11:07:24;;;;;;;21.13;4.25;;;;;;;;;;5129450;27;20465;-70
2022/07/07 11:09:59;;;;;;;22.75;4.55;;;;;;;;;;5128028;27;20050;-80
2022/07/07 11:12:42;;;;;;;14.25;3.28;;;;;;;;;;5148175;27;20043;-68
2022/07/07 11:15:20;;;;;;;23.70;4.32;;;;;;;;;;5148065;27;20054;-84
2022/07/07 11:17:48;;;;;;;22.65;4.25;;;;;;;;;;5147182;27;20162;-70
2022/07/07 11:20:15;;;;;;;21.63;4.78;;;;;;;;;;5113031;27;20129;-71
2022/07/07 11:22:45;;;;;;;19.48;3.90;;;;;;;;;;5130623;27;20093;-68
2022/07/07 11:25:12;;;;;;;19.80;3.63;;;;;;;;;;5130959;27;20185;-79
2022/07/07 11:27:38;;;;;;;21.70;4.20;;;;;;;;;;5131030;27;20158;-73
2022/07/07 11:30:05;;;;;;;16.75;3.33;;;;;;;;;;5113754;27;20043;-81
2022/07/07 11:32:38;;;;;;;16.55;2.88;;;;;;;;;;5130627;27;20074;-69
2022/07/07 11:35:05;;;;;;;16.05;3.22;;;;;;;;;;5130808;27;20077;-68
2022/07/07 11:37:31;;;;;;;19.02;3.17;;;;;;;;;;5130998;27;20066;-77
2022/07/07 11:39:58;;;;;;;12.38;2.90;;;;;;;;;;5130440;27;20051;-72
2022/07/07 11:42:25;;;;;;;15.63;2.85;;;;;;;;;;5130881;27;20123;-74
2022/07/07 11:44:51;;;;;;;12.05;3.80;;;;;;;;;;5111816;27;20387;-71
2022/07/07 11:47:17;;;;;;;;;;;;;;;;;;5130419;27;20043;-78
2022/07/07 11:49:43;;;;;;;16.35;2.90;;;;;;;;;;5130712;27;19941;-74
2022/07/07 11:52:14;;;;;;;14.48;2.58;;;;;;;;;;5130298;27;20043;-70
2022/07/07 11:54:44;;;;;;;16.73;3.03;;;;;;;;;;5130317;27;20095;-69
2022/07/07 11:57:10;;;;;;;10.93;2.70;;;;;;;;;;5146868;27;20486;-69
2022/07/07 11:59:36;;;;;;;16.33;3.03;;;;;;;;;;5146130;27;20035;-72
2022/07/07 12:02:02;;;;;;;16.67;3.58;;;;;;;;;;5129343;27;20043;-70
2022/07/07 12:04:28;;;;;;;17.63;3.72;;;;;;;;;;5130775;27;20051;-70
2022/07/07 12:06:54;;;;;;;;;;;;;;;;;;5129732;27;20046;-71
2022/07/07 12:09:20;;;;;;;18.88;4.03;;;;;;;;;;5130189;27;19919;-70
2022/07/07 12:11:47;;;;;;;26.08;4.40;;;;;;;;;;5129993;27;20122;-78
2022/07/07 12:14:13;;;;;;;21.15;4.20;;;;;;;;;;5129420;27;20432;-70
2022/07/07 12:16:45;;;;;;;18.92;3.85;;;;;;;;;;5142890;27;20451;-69
2022/07/07 12:19:12;;;;;;;24.23;4.25;;;;;;;;;;5114603;27;20090;-71
2022/07/07 12:21:46;;;;;;;16.83;3.60;;;;;;;;;;5150486;27;20441;-68
2022/07/07 12:24:13;;;;;;;16.55;4.00;;;;;;;;;;5150159;27;20039;-66
2022/07/07 12:26:43;;;;;;;15.07;3.25;;;;;;;;;;5139137;27;20100;-75
2022/07/07 12:29:09;;;;;;;17.70;2.90;;;;;;;;;;5128875;27;20236;-71
2022/07/07 12:31:36;;;;;;;14.23;3.30;;;;;;;;;;5129648;27;20479;-78
2022/07/07 12:34:12;;;;;;;15.15;3.05;;;;;;;;;;5128979;27;20079;-74
2022/07/07 12:36:40;;;;;;;17.92;3.05;;;;;;;;;;5131487;27;20039;-69
2022/07/07 12:39:06;;;;;;;12.57;2.90;;;;;;;;;;5129510;27;20071;-69
2022/07/07 12:41:34;;;;;;;15.20;2.97;;;;;;;;;;5129489;27;20078;-68
2022/07/07 12:44:15;;;;;;;17.10;3.40;;;;;;;;;;5129106;27;20043;-70
2022/07/07 12:46:42;;;;;;;13.48;2.88;;;;;;;;;;5129535;27;20047;-69
2022/07/07 12:49:08;;;;;;;19.05;3.50;;;;;;;;;;5129606;27;20462;-71
2022/07/07 12:51:34;;;;;;;19.40;4.15;;;;;;;;;;5129354;27;20128;-73
2022/07/07 12:54:00;;;;;;;;;;;;;;;;;;5129036;27;20057;-69
2022/07/07 12:56:37;;;;;;;21.67;4.30;;;;;;;;;;5129632;27;20026;-74
2022/07/07 12:59:21;;;;;;;17.95;4.43;;;;;;;;;;5130626;27;20047;-72
2022/07/07 13:01:51;;;;;;;20.80;3.92;;;;;;;;;;5129306;27;20043;-73
2022/07/07 13:04:18;;;;;;;21.27;4.07;;;;;;;;;;5128794;27;20054;-70
2022/07/07 13:06:45;;;;;;;14.30;3.38;;;;;;;;;;5129244;27;20043;-72
2022/07/07 13:09:11;;;;;;;15.60;3.45;;;;;;;;;;5129136;27;20058;-70
2022/07/07 13:11:37;;;;;;;;;;;;;;;;;;5111851;27;20115;-73
2022/07/07 13:14:03;;;;;;;19.25;4.22;;;;;;;;;;5109701;27;20013;-78
2022/07/07 13:16:29;;;;;;;18.58;3.75;;;;;;;;;;5129207;27;20047;-82
2022/07/07 13:18:56;;;;;;;21.52;4.80;;;;;;;;;;5129104;27;20153;-77
2022/07/07 13:21:22;;;;;;;21.10;4.00;;;;;;;;;;5112541;27;20043;-72
2022/07/07 13:23:48;;;;;;;14.95;3.28;;;;;;;;;;5128888;27;20152;-73
2022/07/07 13:26:14;;;;;;;24.40;4.68;;;;;;;;;;5128273;27;20080;-79
2022/07/07 13:28:40;;;;;;;23.23;6.05;;;;;;;;;;5128955;27;20047;-74
2022/07/07 13:31:06;;;;;;;;;;;;;;;;;;5128105;27;20051;-74
2022/07/07 13:33:32;;;;;;;23.02;4.65;;;;;;;;;;5095119;27;19928;-73
2022/07/07 13:35:58;;;;;;;20.00;4.95;;;;;;;;;;5128654;27;20057;-76
2022/07/07 13:38:24;;;;;;;20.50;4.38;;;;;;;;;;5128996;27;20047;-74
2022/07/07 13:40:54;;;;;;;18.25;3.17;;;;;;;;;;5128325;27;20131;-75
2022/07/07 13:43:20;;;;;;;16.13;4.10;;;;;;;;;;5126975;27;20157;-75
2022/07/07 13:45:46;;;;;;;;;;;;;;;;;;5128656;27;20047;-76
2022/07/07 13:48:12;;;;;;;16.23;3.78;;;;;;;;;;5128123;27;20014;-75
2022/07/07 13:50:38;;;;;;;20.58;4.22;;;;;;;;;;5128751;27;20078;-84
2022/07/07 13:53:04;;;;;;;23.30;4.50;;;;;;;;;;5129086;27;20063;-80
2022/07/07 13:55:30;;;;;;;15.80;3.20;;;;;;;;;;5111404;27;20066;-83
2022/07/07 13:57:56;;;;;;;;;;;;;;;;;;5140431;27;20118;-81
2022/07/07 14:00:22;;;;;;;26.95;4.30;;;;;;;;;;5145269;27;20563;-77
2022/07/07 14:02:49;;;;;;;17.80;3.10;;;;;;;;;;5127899;27;20050;-70
2022/07/07 14:05:15;;;;;;;;;;;;;;;;;;5134868;27;20043;-73
2022/07/07 14:07:42;;;;;;;15.18;3.33;;;;;;;;;;5126479;28;19920;-72
2022/07/07 14:10:09;;;;;;;15.60;3.20;;;;;;;;;;5141861;27;20054;-71
2022/07/07 14:12:35;;;;;;;16.42;3.30;;;;;;;;;;5133417;27;20118;-71
2022/07/07 14:15:01;;;;;;;14.75;2.90;;;;;;;;;;5119755;27;20069;-71
2022/07/07 14:17:27;;;;;;;;;;;;;;;;;;5128267;27;20051;-78
2022/07/07 14:19:54;;;;;;;13.30;2.45;;;;;;;;;;5127273;27;20032;-73
2022/07/07 14:22:20;;;;;;;19.95;3.45;;;;;;;;;;5143948;27;20058;-74
2022/07/07 14:24:46;;;;;;;11.10;2.70;;;;;;;;;;5145661;27;20054;-73
2022/07/07 14:27:12;;;;;;;15.93;2.78;;;;;;;;;;5146975;27;20053;-77
2022/07/07 14:29:38;;;;;;;11.30;2.67;;;;;;;;;;5139596;27;20047;-70
2022/07/07 14:32:05;;;;;;;11.45;2.40;;;;;;;;;;5141932;27;20043;-74
2022/07/07 14:34:31;;;;;;;9.77;2.58;;;;;;;;;;5143567;27;20095;-83
2022/07/07 14:36:58;;;;;;;;;;;;;;;;;;5144655;27;20058;-80
2022/07/07 14:39:24;;;;;;;17.55;3.05;;;;;;;;;;5123614;27;20336;-73
2022/07/07 14:41:50;;;;;;;17.55;3.38;;;;;;;;;;5126102;27;20043;-74
2022/07/07 14:44:17;;;;;;;19.08;3.75;;;;;;;;;;5129160;27;20047;-73
2022/07/07 14:46:43;;;;;;;;;;;;;;;;;;5121610;28;20075;-76